createdAt,value
2022-07-29T00:00:40.184Z,60.60
2022-07-29T00:03:07.856Z,61.17
2022-07-29T00:05:35.406Z,61.05
2022-07-29T00:08:02.910Z,61.48
2022-07-29T00:10:31.854Z,62.11
2022-07-29T00:12:59.949Z,62.22
2022-07-29T00:15:27.752Z,62.51
2022-07-29T00:17:55.365Z,62.57
2022-07-29T00:20:22.886Z,62.74
2022-07-29T00:22:50.406Z,62.72
2022-07-29T00:25:18.001Z,62.95
2022-07-29T00:27:47.154Z,63.23
2022-07-29T00:30:14.968Z,62.83
2022-07-29T00:32:42.686Z,63.14
2022-07-29T00:35:28.223Z,62.89
2022-07-29T00:37:55.759Z,62.65
2022-07-29T00:40:23.771Z,62.50
2022-07-29T00:42:53.806Z,62.57
2022-07-29T00:45:22.849Z,62.21
2022-07-29T00:47:50.676Z,62.19
2022-07-29T00:50:18.793Z,61.97
2022-07-29T00:52:46.613Z,61.84
2022-07-29T00:55:15.535Z,61.96
2022-07-29T00:57:44.266Z,61.67
2022-07-29T01:00:16.390Z,61.86
2022-07-29T01:02:43.870Z,61.62
2022-07-29T01:05:13.431Z,61.58
2022-07-29T01:07:41.357Z,61.67
2022-07-29T01:10:11.381Z,61.25
2022-07-29T01:12:40.156Z,60.68
2022-07-29T01:15:09.771Z,60.44
2022-07-29T01:17:52.446Z,60.67
2022-07-29T01:20:31.508Z,60.37
2022-07-29T01:23:23.047Z,60.21
2022-07-29T01:26:03.221Z,60.02
2022-07-29T01:28:42.810Z,60.59
2022-07-29T01:31:12.469Z,60.34
2022-07-29T01:33:56.459Z,59.84
2022-07-29T01:36:29.297Z,59.86
2022-07-29T01:39:03.426Z,60.10
2022-07-29T01:41:35.976Z,60.35
2022-07-29T01:44:14.753Z,60.32
2022-07-29T01:46:48.032Z,60.50
2022-07-29T01:49:18.469Z,60.51
2022-07-29T01:51:51.166Z,60.65
2022-07-29T01:54:24.366Z,60.81
2022-07-29T01:56:53.552Z,60.52
2022-07-29T01:59:24.227Z,60.56
2022-07-29T02:01:55.363Z,61.06
2022-07-29T02:04:29.537Z,60.75
2022-07-29T02:07:00.841Z,60.32
2022-07-29T02:09:30.551Z,59.85
2022-07-29T02:11:59.451Z,59.96
2022-07-29T02:14:30.503Z,60.08
2022-07-29T02:17:00.280Z,60.02
2022-07-29T02:19:29.647Z,60.28
2022-07-29T02:21:59.575Z,60.44
2022-07-29T02:24:28.260Z,60.73
2022-07-29T02:26:58.261Z,60.84
2022-07-29T02:29:29.233Z,60.88
2022-07-29T04:41:34.551Z,62.29
2022-07-29T04:44:06.899Z,62.52
2022-07-29T04:46:34.960Z,62.80
2022-07-29T04:49:02.776Z,62.34
2022-07-29T04:51:30.381Z,62.51
2022-07-29T05:04:40.159Z,62.72
2022-07-29T05:07:07.726Z,63.01
2022-07-29T05:09:35.234Z,63.00
2022-07-29T05:12:02.865Z,63.17
2022-07-29T05:14:30.370Z,63.29
2022-07-29T05:16:58.162Z,63.54
2022-07-29T05:19:25.775Z,63.70
2022-07-29T05:21:54.694Z,63.90
2022-07-29T05:24:22.209Z,64.03
2022-07-29T05:26:49.748Z,64.21
2022-07-29T05:29:44.171Z,64.18
2022-07-29T05:32:05.429Z,64.03
2022-07-29T05:34:33.293Z,64.00
2022-07-29T05:37:02.137Z,63.62
2022-07-29T05:39:47.611Z,63.75
2022-07-29T05:42:16.760Z,63.56
2022-07-29T05:44:44.259Z,63.46
2022-07-29T05:47:12.465Z,63.42
2022-07-29T05:49:40.077Z,63.13
2022-07-29T05:52:08.934Z,62.94
2022-07-29T05:54:36.521Z,63.04
2022-07-29T05:57:04.233Z,63.13
2022-07-29T05:59:31.740Z,63.15
2022-07-29T06:01:59.339Z,63.09
2022-07-29T06:04:26.897Z,63.09
2022-07-29T06:06:54.444Z,63.04
2022-07-29T06:09:23.995Z,62.92
2022-07-29T06:11:51.541Z,63.12
2022-07-29T06:14:19.493Z,62.89
2022-07-29T06:16:48.254Z,62.58
2022-07-29T06:19:15.805Z,62.76
2022-07-29T06:21:44.533Z,62.69
2022-07-29T06:24:13.456Z,62.51
2022-07-29T06:26:43.232Z,62.36
2022-07-29T06:29:12.323Z,62.59
2022-07-29T06:31:40.752Z,62.21
2022-07-29T06:34:08.634Z,62.07
2022-07-29T06:36:37.799Z,62.17
2022-07-29T06:39:07.284Z,62.38
2022-07-29T06:41:35.457Z,62.24
2022-07-29T06:44:05.515Z,62.40
2022-07-29T06:46:33.216Z,62.14
2022-07-29T06:49:02.407Z,61.76
2022-07-29T06:51:30.288Z,61.47
2022-07-29T06:54:02.601Z,61.45
2022-07-29T06:56:31.794Z,61.63
2022-07-29T06:58:59.374Z,61.61
2022-07-29T07:01:30.449Z,61.90
2022-07-29T07:03:58.110Z,61.88
2022-07-29T07:06:25.630Z,62.18
2022-07-29T07:08:53.153Z,62.08
2022-07-29T07:11:20.900Z,62.39
2022-07-29T07:13:48.386Z,62.25
2022-07-29T07:16:16.031Z,62.26
2022-07-29T07:18:46.050Z,62.59
2022-07-29T07:21:18.836Z,62.58
2022-07-29T07:23:47.071Z,62.32
2022-07-29T07:26:14.653Z,62.12
2022-07-29T07:28:42.176Z,61.93
2022-07-29T07:31:10.413Z,62.43
2022-07-29T07:33:38.012Z,62.03
2022-07-29T07:36:07.213Z,62.05
2022-07-29T07:38:35.573Z,62.45
2022-07-29T07:41:03.667Z,62.45
2022-07-29T07:43:31.261Z,62.12
2022-07-29T07:45:59.381Z,62.19
2022-07-29T07:48:27.053Z,62.04
2022-07-29T07:50:54.586Z,61.46
2022-07-29T07:53:24.482Z,60.86
2022-07-29T07:58:39.575Z,60.41
2022-07-29T08:01:07.281Z,60.18
2022-07-29T08:03:35.004Z,60.18
2022-07-29T08:06:02.577Z,59.77
2022-07-29T08:08:31.426Z,59.17
2022-07-29T08:11:00.639Z,58.87
2022-07-29T08:13:31.326Z,58.83
2022-07-29T08:16:00.700Z,58.66
2022-07-29T08:18:29.506Z,58.72
2022-07-29T08:20:57.927Z,58.26
2022-07-29T08:23:29.314Z,58.25
2022-07-29T08:26:01.882Z,57.49
2022-07-29T08:28:29.382Z,56.83
2022-07-29T08:30:56.908Z,56.87
2022-07-29T08:33:24.396Z,55.97
2022-07-29T08:35:51.929Z,56.13
2022-07-29T08:38:19.440Z,55.83
2022-07-29T08:40:47.585Z,55.89
2022-07-29T08:43:16.688Z,54.83
2022-07-29T08:45:47.616Z,53.14
2022-07-29T08:48:16.840Z,52.81
2022-07-29T08:50:46.521Z,52.80
2022-07-29T08:53:16.449Z,52.81
2022-07-29T08:55:44.988Z,52.38
2022-07-29T08:58:15.756Z,52.01
2022-07-29T09:00:47.642Z,50.95
2022-07-29T09:03:22.295Z,50.84
2022-07-29T09:05:50.608Z,50.94
2022-07-29T09:08:18.709Z,50.72
2022-07-29T09:10:46.634Z,50.71
2022-07-29T09:13:14.235Z,50.34
2022-07-29T09:15:41.763Z,50.29
2022-07-29T09:18:19.561Z,49.77
2022-07-29T09:21:16.231Z,49.79
2022-07-29T09:24:02.232Z,49.99
2022-07-29T09:26:30.882Z,49.52
2022-07-29T09:28:59.173Z,49.64
2022-07-29T09:31:35.086Z,49.50
2022-07-29T09:34:04.689Z,49.46
2022-07-29T09:36:32.409Z,49.04
2022-07-29T09:39:01.355Z,49.55
2022-07-29T09:41:29.081Z,48.68
2022-07-29T09:43:57.929Z,48.26
2022-07-29T09:46:26.079Z,48.08
2022-07-29T09:49:11.299Z,48.16
2022-07-29T09:51:39.375Z,47.95
2022-07-29T09:54:25.059Z,47.74
2022-07-29T09:56:52.943Z,47.36
2022-07-29T09:59:23.266Z,46.96
2022-07-29T10:01:51.370Z,46.73
2022-07-29T10:04:20.902Z,46.34
2022-07-29T10:07:04.242Z,46.46
2022-07-29T10:09:32.973Z,46.94
2022-07-29T10:12:09.992Z,46.35
2022-07-29T10:14:38.136Z,46.24
2022-07-29T10:17:07.133Z,44.95
2022-07-29T10:19:36.933Z,44.85
2022-07-29T10:22:06.555Z,45.12
2022-07-29T10:24:35.288Z,44.68
2022-07-29T10:27:05.116Z,44.97
2022-07-29T10:29:32.840Z,44.25
2022-07-29T10:32:15.941Z,44.19
2022-07-29T10:35:03.341Z,43.64
2022-07-29T10:37:39.605Z,43.80
2022-07-29T10:40:41.919Z,43.99
2022-07-29T10:43:22.512Z,43.89
2022-07-29T10:45:51.579Z,43.18
2022-07-29T10:48:20.295Z,42.80
2022-07-29T10:50:56.802Z,42.60
2022-07-29T10:53:24.869Z,42.58
2022-07-29T10:55:53.833Z,41.99
2022-07-29T10:58:23.463Z,41.09
2022-07-29T11:00:52.622Z,41.09
2022-07-29T11:03:50.397Z,41.00
2022-07-29T11:58:11.265Z,39.13
2022-07-29T12:00:40.939Z,39.37
2022-07-29T12:03:10.103Z,39.41
2022-07-29T12:05:48.267Z,39.38
2022-07-29T12:08:21.438Z,39.55
2022-07-29T13:26:26.401Z,40.50
2022-07-29T13:28:54.000Z,40.82
2022-07-29T13:31:21.576Z,41.18
2022-07-29T13:33:49.241Z,41.54
2022-07-29T13:36:16.818Z,41.62
2022-07-29T15:05:02.945Z,46.79
2022-07-29T15:07:30.693Z,46.85
2022-07-29T15:09:59.782Z,47.18
2022-07-29T15:12:27.503Z,47.42
2022-07-29T15:14:55.136Z,47.66
2022-07-29T15:17:22.656Z,48.05
2022-07-29T16:51:47.695Z,46.02
2022-07-29T16:54:15.387Z,45.86
2022-07-29T16:56:43.053Z,46.07
2022-07-29T16:59:10.571Z,45.98
2022-07-29T17:01:38.139Z,46.17
2022-07-29T18:04:03.465Z,49.85
2022-07-29T18:06:31.054Z,50.01
2022-07-29T18:08:58.569Z,49.52
2022-07-29T18:11:26.198Z,49.75
2022-07-29T18:13:53.704Z,50.01
2022-07-29T19:15:39.519Z,57.03
2022-07-29T19:18:07.177Z,57.10
2022-07-29T19:20:34.970Z,57.13
2022-07-29T19:23:02.496Z,57.73
2022-07-29T19:25:30.059Z,57.81
2022-07-29T19:27:57.676Z,57.70
2022-07-29T20:16:13.559Z,58.90
2022-07-29T20:18:41.114Z,58.83
2022-07-29T20:21:08.644Z,59.37
2022-07-29T20:23:37.345Z,59.55
2022-07-29T20:26:09.312Z,59.32
2022-07-29T20:39:26.656Z,56.80
2022-07-29T20:41:54.190Z,56.67
2022-07-29T20:44:23.588Z,56.92
2022-07-29T20:46:51.310Z,57.43
2022-07-29T20:49:18.919Z,56.11
2022-07-29T20:51:46.504Z,55.77
2022-07-29T20:54:14.429Z,55.90
2022-07-29T20:56:43.279Z,55.90
2022-07-29T20:59:11.256Z,55.75
2022-07-29T21:01:38.801Z,55.76
2022-07-29T21:04:06.387Z,55.73
2022-07-29T21:06:34.643Z,55.52
2022-07-29T21:09:02.164Z,56.06
2022-07-29T21:11:44.182Z,55.72
2022-07-29T21:14:21.475Z,55.83
2022-07-29T21:16:50.151Z,55.62
2022-07-29T21:19:17.684Z,55.43
2022-07-29T21:21:45.238Z,55.66
2022-07-29T21:24:12.736Z,55.22
2022-07-29T21:26:40.258Z,55.46
2022-07-29T21:29:06.885Z,55.52
2022-07-29T21:31:35.719Z,55.54
2022-07-29T21:34:03.254Z,55.62
2022-07-29T21:39:18.262Z,55.59
2022-07-29T21:41:45.794Z,55.88
2022-07-29T21:44:13.330Z,55.56
2022-07-29T21:46:42.184Z,55.68
2022-07-29T21:49:09.733Z,55.74
2022-07-29T21:51:37.367Z,55.65
2022-07-29T21:54:05.502Z,55.84
2022-07-29T21:56:34.039Z,56.21
2022-07-29T21:59:03.239Z,55.94
2022-07-29T22:01:38.999Z,56.22
2022-07-29T22:04:09.306Z,56.39
2022-07-29T22:06:36.831Z,56.36
2022-07-29T22:09:04.623Z,56.11
2022-07-29T22:11:32.389Z,56.22
2022-07-29T22:14:00.121Z,56.51
2022-07-29T22:16:27.697Z,56.49
2022-07-29T22:18:55.475Z,56.67
2022-07-29T22:21:24.390Z,56.83
2022-07-29T22:23:51.917Z,57.18
2022-07-29T22:26:19.458Z,57.03
2022-07-29T22:28:46.951Z,57.72
2022-07-29T22:31:14.521Z,58.20
2022-07-29T22:33:42.170Z,58.21
2022-07-29T22:36:10.432Z,58.41
2022-07-29T22:38:39.322Z,58.71
2022-07-29T22:41:06.874Z,58.84
2022-07-29T22:43:35.680Z,58.81
2022-07-29T22:46:03.276Z,58.72
2022-07-29T22:48:31.218Z,59.10
2022-07-29T22:50:58.744Z,59.37
2022-07-29T22:53:26.284Z,59.40
2022-07-29T22:55:55.351Z,60.11
2022-07-29T22:58:22.844Z,60.47
2022-07-29T23:00:50.394Z,60.62
2022-07-29T23:03:17.972Z,61.18
2022-07-29T23:05:45.612Z,61.48
2022-07-29T23:08:13.159Z,61.79
2022-07-29T23:10:41.694Z,62.00
2022-07-29T23:13:10.921Z,62.41
2022-07-29T23:15:38.424Z,62.53
2022-07-29T23:18:06.027Z,62.63
2022-07-29T23:20:33.670Z,62.86
2022-07-29T23:23:01.228Z,63.16
2022-07-29T23:25:28.775Z,63.21
2022-07-29T23:27:56.359Z,63.78
2022-07-29T23:30:25.618Z,64.11
2022-07-29T23:32:53.242Z,63.93
2022-07-29T23:35:21.029Z,63.98
2022-07-29T23:37:48.774Z,64.75
2022-07-29T23:40:16.863Z,64.79
2022-07-29T23:42:44.618Z,64.88
2022-07-29T23:45:14.157Z,64.81
2022-07-29T23:47:43.112Z,64.82
2022-07-29T23:50:12.967Z,64.94
2022-07-29T23:52:41.426Z,64.98
2022-07-29T23:55:37.100Z,65.34
2022-07-29T23:57:57.257Z,65.40
